createdAt,value
2022-07-27T00:00:13.495Z,61.70
2022-07-27T00:01:13.570Z,62.00
2022-07-27T00:02:13.717Z,61.90
2022-07-27T00:03:19.390Z,61.90
2022-07-27T00:04:13.588Z,61.60
2022-07-27T00:05:13.882Z,62.00
2022-07-27T00:06:14.135Z,62.10
2022-07-27T00:07:14.625Z,62.10
2022-07-27T00:08:13.448Z,62.20
2022-07-27T00:09:14.074Z,61.90
2022-07-27T00:10:13.565Z,62.10
2022-07-27T00:11:13.502Z,62.10
2022-07-27T00:12:18.716Z,61.60
2022-07-27T00:13:14.337Z,61.30
2022-07-27T00:14:13.703Z,61.80
2022-07-27T00:15:13.793Z,61.90
2022-07-27T00:16:20.973Z,62.10
2022-07-27T00:17:13.086Z,62.40
2022-07-27T00:18:12.929Z,62.30
2022-07-27T00:19:13.269Z,62.60
2022-07-27T00:20:13.787Z,62.50
2022-07-27T00:21:14.534Z,62.70
2022-07-27T00:22:13.428Z,63.30
2022-07-27T00:23:13.424Z,62.80
2022-07-27T00:24:13.571Z,63.00
2022-07-27T00:25:13.503Z,63.10
2022-07-27T00:26:13.406Z,63.00
2022-07-27T00:27:13.442Z,63.20
2022-07-27T00:28:13.601Z,63.60
2022-07-27T00:29:14.324Z,63.60
2022-07-27T00:30:14.042Z,64.00
2022-07-27T00:31:13.571Z,64.20
2022-07-27T00:32:13.526Z,63.90
2022-07-27T00:33:16.845Z,63.40
2022-07-27T00:34:13.789Z,63.50
2022-07-27T00:35:14.992Z,63.70
2022-07-27T00:36:13.025Z,64.00
2022-07-27T00:37:13.258Z,63.70
2022-07-27T00:38:13.357Z,64.50
2022-07-27T00:39:13.836Z,64.70
2022-07-27T00:40:13.159Z,64.60
2022-07-27T00:41:13.251Z,64.20
2022-07-27T00:42:13.147Z,64.40
2022-07-27T00:43:13.224Z,63.90
2022-07-27T00:44:13.257Z,64.20
2022-07-27T00:45:13.357Z,64.20
2022-07-27T00:46:13.859Z,64.20
2022-07-27T00:47:13.192Z,64.40
2022-07-27T00:48:13.431Z,64.10
2022-07-27T00:49:13.759Z,63.90
2022-07-27T00:50:13.486Z,63.70
2022-07-27T00:51:13.489Z,64.10
2022-07-27T00:52:13.516Z,64.30
2022-07-27T00:53:14.876Z,64.50
2022-07-27T00:54:13.903Z,64.60
2022-07-27T00:55:13.031Z,64.40
2022-07-27T00:56:12.980Z,64.80
2022-07-27T00:57:13.205Z,64.30
2022-07-27T00:58:13.300Z,64.10
2022-07-27T00:59:13.640Z,64.50
2022-07-27T01:00:13.782Z,64.60
2022-07-27T01:01:13.740Z,64.60
2022-07-27T01:02:19.511Z,64.30
2022-07-27T01:03:16.478Z,64.50
2022-07-27T01:04:13.801Z,64.60
2022-07-27T01:05:13.075Z,65.30
2022-07-27T01:06:13.797Z,64.80
2022-07-27T01:07:14.168Z,64.60
2022-07-27T01:08:13.518Z,64.80
2022-07-27T01:09:14.141Z,65.00
2022-07-27T01:10:13.296Z,64.90
2022-07-27T01:11:13.612Z,64.90
2022-07-27T01:12:13.581Z,65.00
2022-07-27T01:13:13.809Z,65.10
2022-07-27T01:14:12.913Z,65.20
2022-07-27T01:15:13.140Z,65.40
2022-07-27T01:16:13.182Z,65.00
2022-07-27T01:17:13.212Z,64.70
2022-07-27T01:18:13.259Z,64.90
2022-07-27T01:19:13.683Z,64.80
2022-07-27T01:20:13.297Z,64.80
2022-07-27T01:21:13.424Z,65.30
2022-07-27T01:22:13.500Z,65.10
2022-07-27T01:23:13.766Z,64.70
2022-07-27T01:24:13.687Z,64.70
2022-07-27T01:25:13.690Z,64.80
2022-07-27T01:26:13.844Z,64.90
2022-07-27T01:27:13.938Z,65.20
2022-07-27T01:28:13.039Z,65.00
2022-07-27T01:29:13.349Z,65.40
2022-07-27T01:30:13.769Z,65.70
2022-07-27T01:31:14.023Z,65.90
2022-07-27T01:32:13.396Z,65.60
2022-07-27T01:33:13.821Z,65.60
2022-07-27T01:34:14.257Z,65.40
2022-07-27T01:35:13.483Z,65.90
2022-07-27T01:36:14.207Z,66.00
2022-07-27T01:37:13.655Z,65.60
2022-07-27T01:38:13.905Z,65.50
2022-07-27T01:39:13.229Z,65.40
2022-07-27T01:40:13.739Z,65.60
2022-07-27T01:41:13.930Z,65.90
2022-07-27T01:42:17.995Z,65.80
2022-07-27T01:43:12.955Z,65.50
2022-07-27T01:44:13.182Z,65.80
2022-07-27T01:45:13.259Z,65.40
2022-07-27T01:46:13.330Z,65.50
2022-07-27T01:47:14.412Z,65.70
2022-07-27T01:48:13.125Z,66.20
2022-07-27T01:49:13.487Z,66.30
2022-07-27T01:50:13.778Z,66.20
2022-07-27T01:51:13.790Z,66.40
2022-07-27T01:52:13.766Z,66.70
2022-07-27T01:53:13.711Z,66.70
2022-07-27T01:54:13.640Z,66.70
2022-07-27T01:55:13.650Z,66.50
2022-07-27T01:56:13.586Z,66.60
2022-07-27T01:57:13.516Z,66.60
2022-07-27T01:58:13.422Z,66.50
2022-07-27T01:59:15.954Z,66.80
2022-07-27T02:00:13.477Z,67.30
2022-07-27T02:01:14.054Z,67.40
2022-07-27T02:02:13.501Z,67.60
2022-07-27T02:03:13.347Z,67.40
2022-07-27T02:04:18.453Z,67.10
2022-07-27T02:05:13.371Z,67.10
2022-07-27T02:06:13.588Z,67.10
2022-07-27T02:07:13.645Z,67.60
2022-07-27T02:08:13.661Z,68.30
2022-07-27T02:09:14.636Z,68.10
2022-07-27T02:10:13.890Z,68.30
2022-07-27T02:11:14.192Z,68.60
2022-07-27T02:12:13.495Z,69.00
2022-07-27T02:13:22.326Z,68.90
2022-07-27T02:14:13.186Z,68.90
2022-07-27T02:15:14.973Z,68.80
2022-07-27T02:16:17.155Z,69.50
2022-07-27T02:17:14.018Z,69.30
2022-07-27T02:18:33.477Z,69.40
2022-07-27T02:19:13.896Z,69.30
2022-07-27T02:20:13.158Z,69.70
2022-07-27T02:21:13.203Z,69.90
2022-07-27T02:22:13.094Z,70.60
2022-07-27T02:23:14.099Z,70.60
2022-07-27T02:24:14.308Z,70.90
2022-07-27T02:25:13.345Z,71.80
2022-07-27T02:26:13.399Z,71.60
2022-07-27T02:27:13.555Z,71.40
2022-07-27T02:28:13.542Z,71.50
2022-07-27T02:29:13.947Z,71.40
2022-07-27T02:30:13.455Z,71.70
2022-07-27T02:31:13.165Z,72.10
2022-07-27T02:32:13.296Z,71.70
2022-07-27T02:33:13.345Z,71.70
2022-07-27T02:34:13.433Z,72.10
2022-07-27T02:35:18.811Z,72.30
2022-07-27T02:36:13.815Z,72.10
2022-07-27T02:37:13.941Z,72.80
2022-07-27T02:38:13.237Z,72.90
2022-07-27T02:39:13.646Z,72.40
2022-07-27T02:40:13.818Z,72.00
2022-07-27T02:41:13.867Z,72.10
2022-07-27T02:42:14.248Z,72.40
2022-07-27T02:43:13.841Z,72.80
2022-07-27T02:44:14.003Z,72.90
2022-07-27T02:45:13.622Z,73.00
2022-07-27T02:46:13.834Z,72.90
2022-07-27T02:47:14.318Z,72.80
2022-07-27T02:48:13.294Z,73.30
2022-07-27T02:49:13.644Z,73.50
2022-07-27T02:50:13.325Z,73.90
2022-07-27T02:51:13.254Z,73.70
2022-07-27T02:52:13.263Z,73.70
2022-07-27T02:53:13.144Z,73.50
2022-07-27T02:54:13.877Z,73.80
2022-07-27T02:55:12.862Z,73.50
2022-07-27T02:56:14.167Z,73.70
2022-07-27T02:57:13.144Z,74.10
2022-07-27T02:58:12.982Z,74.30
2022-07-27T02:59:13.330Z,74.10
2022-07-27T03:00:13.944Z,74.30
2022-07-27T03:01:13.062Z,74.10
2022-07-27T03:02:13.149Z,74.30
2022-07-27T03:03:13.205Z,74.40
2022-07-27T03:04:13.502Z,74.40
2022-07-27T03:05:13.620Z,74.10
2022-07-27T03:06:13.593Z,74.50
2022-07-27T03:07:13.561Z,74.70
2022-07-27T03:08:13.617Z,75.00
2022-07-27T03:09:14.461Z,75.10
2022-07-27T03:10:13.734Z,75.40
2022-07-27T03:11:13.749Z,75.30
2022-07-27T03:12:13.884Z,75.20
2022-07-27T03:13:13.853Z,75.20
2022-07-27T03:14:15.529Z,75.30
2022-07-27T03:15:13.519Z,75.50
2022-07-27T03:16:13.671Z,75.50
2022-07-27T03:17:13.840Z,75.90
2022-07-27T03:18:13.952Z,75.90
2022-07-27T03:19:13.665Z,75.90
2022-07-27T03:20:12.922Z,75.80
2022-07-27T03:21:12.950Z,76.20
2022-07-27T03:22:13.608Z,76.10
2022-07-27T03:23:13.739Z,76.20
2022-07-27T03:24:13.832Z,76.10
2022-07-27T03:25:13.864Z,76.20
2022-07-27T03:26:14.163Z,76.50
2022-07-27T03:27:13.145Z,76.40
2022-07-27T03:28:13.434Z,76.30
2022-07-27T03:29:13.925Z,76.00
2022-07-27T03:30:13.499Z,75.60
2022-07-27T03:31:13.710Z,75.60
2022-07-27T03:32:14.242Z,76.60
2022-07-27T03:33:13.297Z,76.80
2022-07-27T03:34:13.367Z,77.10
2022-07-27T03:35:13.265Z,77.10
2022-07-27T03:36:13.812Z,77.10
2022-07-27T03:37:13.791Z,77.10
2022-07-27T03:38:13.919Z,76.90
2022-07-27T03:39:13.653Z,77.00
2022-07-27T03:40:13.161Z,77.00
2022-07-27T03:41:13.105Z,76.90
2022-07-27T03:42:13.105Z,76.80
2022-07-27T03:43:13.081Z,76.70
2022-07-27T03:44:13.170Z,76.70
2022-07-27T03:45:13.055Z,76.60
2022-07-27T03:46:13.288Z,76.70
2022-07-27T03:47:13.550Z,76.50
2022-07-27T03:48:13.439Z,76.50
2022-07-27T03:49:14.903Z,76.40
2022-07-27T03:50:13.594Z,76.50
2022-07-27T03:51:13.674Z,76.60
2022-07-27T03:52:17.703Z,76.40
2022-07-27T03:53:13.045Z,76.40
2022-07-27T03:54:13.110Z,77.40
2022-07-27T03:55:13.127Z,77.50
2022-07-27T03:56:13.281Z,77.40
2022-07-27T03:57:13.422Z,77.50
2022-07-27T03:58:13.464Z,77.70
2022-07-27T03:59:14.739Z,77.60
2022-07-27T04:00:13.161Z,77.70
2022-07-27T04:01:13.803Z,77.90
2022-07-27T04:02:14.604Z,78.20
2022-07-27T04:03:14.345Z,78.10
2022-07-27T04:04:13.424Z,77.90
2022-07-27T04:05:13.498Z,77.90
2022-07-27T04:06:13.499Z,77.90
2022-07-27T04:07:13.619Z,77.60
2022-07-27T04:08:13.744Z,77.60
2022-07-27T04:09:13.829Z,77.60
2022-07-27T04:10:14.125Z,77.40
2022-07-27T04:11:13.260Z,77.50
2022-07-27T04:12:13.357Z,77.30
2022-07-27T04:13:13.191Z,77.00
2022-07-27T04:14:13.045Z,76.90
2022-07-27T04:15:13.341Z,76.30
2022-07-27T04:16:13.347Z,76.30
2022-07-27T04:17:55.024Z,76.50
2022-07-27T04:18:13.694Z,76.60
2022-07-27T04:19:14.161Z,76.70
2022-07-27T04:20:13.749Z,76.80
2022-07-27T04:21:15.061Z,76.80
2022-07-27T04:22:13.215Z,76.70
2022-07-27T04:23:13.041Z,76.40
2022-07-27T04:24:13.016Z,76.20
2022-07-27T04:25:12.918Z,76.50
2022-07-27T04:26:13.078Z,76.80
2022-07-27T04:27:13.238Z,76.80
2022-07-27T04:28:13.280Z,76.50
2022-07-27T04:29:19.626Z,77.10
2022-07-27T04:30:13.837Z,77.00
2022-07-27T04:31:14.355Z,76.90
2022-07-27T04:32:13.586Z,77.00
2022-07-27T04:33:18.660Z,77.00
2022-07-27T04:34:14.078Z,77.10
2022-07-27T04:35:13.051Z,76.80
2022-07-27T04:36:15.251Z,76.20
2022-07-27T04:37:13.103Z,76.40
2022-07-27T04:38:13.140Z,76.40
2022-07-27T04:39:13.317Z,76.40
2022-07-27T04:40:13.552Z,75.90
2022-07-27T04:41:13.077Z,75.60
2022-07-27T04:42:13.412Z,75.60
2022-07-27T04:43:13.867Z,76.30
2022-07-27T04:44:13.956Z,75.70
2022-07-27T04:45:13.121Z,75.50
2022-07-27T04:46:15.301Z,75.00
2022-07-27T04:47:13.784Z,74.90
2022-07-27T04:48:14.015Z,75.10
2022-07-27T04:49:13.536Z,75.10
2022-07-27T04:50:13.615Z,75.30
2022-07-27T04:51:13.714Z,75.10
2022-07-27T04:52:14.028Z,74.60
2022-07-27T04:53:13.191Z,74.70
2022-07-27T04:54:13.253Z,74.70
2022-07-27T04:55:13.137Z,74.80
2022-07-27T04:56:13.749Z,74.70
2022-07-27T04:57:13.242Z,74.80
2022-07-27T04:58:13.572Z,74.70
2022-07-27T04:59:13.875Z,74.50
2022-07-27T05:00:18.291Z,75.10
2022-07-27T05:01:13.455Z,74.80
2022-07-27T05:02:13.564Z,74.50
2022-07-27T05:03:13.950Z,74.60
2022-07-27T05:04:12.897Z,75.30
2022-07-27T05:05:13.005Z,75.00
2022-07-27T05:06:13.133Z,74.80
2022-07-27T05:07:13.306Z,74.50
2022-07-27T05:08:13.370Z,74.40
2022-07-27T05:09:13.632Z,74.20
2022-07-27T05:10:17.936Z,74.70
2022-07-27T05:11:12.988Z,74.80
2022-07-27T05:12:12.791Z,74.20
2022-07-27T05:13:13.821Z,74.10
2022-07-27T05:14:13.661Z,74.00
2022-07-27T05:15:13.584Z,74.10
2022-07-27T05:16:13.817Z,73.90
2022-07-27T05:17:13.828Z,73.50
2022-07-27T05:18:14.058Z,73.90
2022-07-27T05:19:13.482Z,73.40
2022-07-27T05:20:12.839Z,73.70
2022-07-27T05:21:13.670Z,73.20
2022-07-27T05:22:14.141Z,72.90
2022-07-27T05:23:13.976Z,72.60
2022-07-27T05:24:13.419Z,72.40
2022-07-27T05:25:13.526Z,72.70
2022-07-27T05:26:13.532Z,71.90
2022-07-27T05:27:14.117Z,72.30
2022-07-27T05:28:13.348Z,72.30
2022-07-27T05:29:13.765Z,72.10
2022-07-27T05:30:13.584Z,72.00
2022-07-27T05:31:13.736Z,71.40
2022-07-27T05:32:13.957Z,71.60
2022-07-27T05:33:13.245Z,71.80
2022-07-27T05:34:13.628Z,71.50
2022-07-27T05:35:13.646Z,72.10
2022-07-27T05:36:13.660Z,72.00
2022-07-27T05:37:13.900Z,71.90
2022-07-27T05:38:13.262Z,71.60
2022-07-27T05:39:13.959Z,71.10
2022-07-27T05:40:13.373Z,70.50
2022-07-27T05:41:13.490Z,70.30
2022-07-27T05:42:13.593Z,70.00
2022-07-27T05:43:14.009Z,69.80
2022-07-27T05:44:13.118Z,69.70
2022-07-27T05:45:13.647Z,70.50
2022-07-27T05:46:13.995Z,70.00
2022-07-27T05:47:12.880Z,70.30
2022-07-27T05:48:14.217Z,69.80
2022-07-27T05:49:14.041Z,70.20
2022-07-27T05:50:14.103Z,70.10
2022-07-27T05:51:18.680Z,69.90
2022-07-27T05:52:14.138Z,70.20
2022-07-27T05:53:13.380Z,69.80
2022-07-27T05:54:15.784Z,70.10
2022-07-27T05:55:14.133Z,70.00
2022-07-27T05:56:13.388Z,70.10
2022-07-27T05:57:13.898Z,69.90
2022-07-27T05:58:13.487Z,69.20
2022-07-27T05:59:13.901Z,69.70
2022-07-27T06:00:13.359Z,69.70
2022-07-27T06:01:13.505Z,69.60
2022-07-27T06:02:18.993Z,69.10
2022-07-27T06:03:13.170Z,68.80
2022-07-27T06:04:14.721Z,68.70
2022-07-27T06:05:15.962Z,68.20
2022-07-27T06:06:13.581Z,68.30
2022-07-27T06:07:18.840Z,67.60
2022-07-27T06:08:12.783Z,68.20
2022-07-27T06:09:14.666Z,68.10
2022-07-27T06:10:13.257Z,67.90
2022-07-27T06:11:13.593Z,67.40
2022-07-27T06:12:18.763Z,67.00
2022-07-27T06:13:18.731Z,67.60
2022-07-27T06:14:14.041Z,67.00
2022-07-27T06:15:13.111Z,66.70
2022-07-27T06:16:13.301Z,66.30
2022-07-27T06:17:13.430Z,66.10
2022-07-27T06:18:13.411Z,65.60
2022-07-27T06:19:19.746Z,65.60
2022-07-27T06:20:18.747Z,65.70
2022-07-27T06:21:19.162Z,65.50
2022-07-27T06:22:13.480Z,65.40
2022-07-27T06:23:15.123Z,65.40
2022-07-27T06:24:13.162Z,64.70
2022-07-27T06:25:13.105Z,65.50
2022-07-27T06:26:13.247Z,66.00
2022-07-27T06:27:13.159Z,64.50
2022-07-27T06:28:13.211Z,65.30
2022-07-27T06:29:13.747Z,65.30
2022-07-27T06:30:13.099Z,64.70
2022-07-27T06:31:13.133Z,65.40
2022-07-27T06:32:13.465Z,65.00
2022-07-27T06:33:13.371Z,64.30
2022-07-27T06:34:13.461Z,64.10
2022-07-27T06:35:13.845Z,65.30
2022-07-27T06:36:13.892Z,65.10
2022-07-27T06:37:14.320Z,64.80
2022-07-27T06:38:18.609Z,64.30
2022-07-27T06:39:14.186Z,63.90
2022-07-27T06:40:13.658Z,64.40
2022-07-27T06:41:18.848Z,64.60
2022-07-27T06:42:14.261Z,64.10
2022-07-27T06:43:13.459Z,63.80
2022-07-27T06:44:13.832Z,64.70
2022-07-27T06:45:14.248Z,64.20
2022-07-27T06:46:13.580Z,64.50
2022-07-27T06:47:15.143Z,63.80
2022-07-27T06:48:13.185Z,64.20
2022-07-27T06:49:14.328Z,64.50
2022-07-27T06:50:14.614Z,64.00
2022-07-27T06:51:22.363Z,62.90
2022-07-27T06:52:13.677Z,62.80
2022-07-27T06:53:17.725Z,62.60
2022-07-27T06:54:18.653Z,62.30
2022-07-27T06:55:15.423Z,62.70
2022-07-27T06:56:19.289Z,62.50
2022-07-27T06:57:13.915Z,62.70
2022-07-27T06:58:13.452Z,62.40
2022-07-27T06:59:14.474Z,62.50
2022-07-27T07:00:14.168Z,63.00
2022-07-27T07:01:18.477Z,62.90
2022-07-27T07:02:13.891Z,63.10
2022-07-27T07:03:13.136Z,62.10
2022-07-27T07:04:13.189Z,61.60
2022-07-27T07:05:13.072Z,61.30
2022-07-27T07:06:13.216Z,60.80
2022-07-27T07:07:14.316Z,60.40
2022-07-27T07:08:13.372Z,60.80
2022-07-27T07:09:13.884Z,60.80
2022-07-27T07:10:13.438Z,61.10
2022-07-27T07:11:13.595Z,61.50
2022-07-27T07:12:14.048Z,61.50
2022-07-27T07:13:18.151Z,61.80
2022-07-27T07:14:13.140Z,62.40
2022-07-27T07:15:13.185Z,62.90
2022-07-27T07:16:13.171Z,62.20
2022-07-27T07:17:13.326Z,61.90
2022-07-27T07:18:13.249Z,61.20
2022-07-27T07:19:13.837Z,60.60
2022-07-27T07:20:13.117Z,60.40
2022-07-27T07:21:13.295Z,59.30
2022-07-27T07:22:13.477Z,58.50
2022-07-27T07:23:16.217Z,58.30
2022-07-27T07:24:13.412Z,58.70
2022-07-27T07:25:13.597Z,57.90
2022-07-27T07:26:13.843Z,56.20
2022-07-27T07:27:14.149Z,56.40
2022-07-27T07:28:13.045Z,56.90
2022-07-27T07:29:13.403Z,56.80
2022-07-27T07:30:13.640Z,56.80
2022-07-27T07:31:14.043Z,56.00
2022-07-27T07:32:13.234Z,54.60
2022-07-27T07:33:13.415Z,54.30
2022-07-27T07:34:13.687Z,54.80
2022-07-27T07:35:14.169Z,54.70
2022-07-27T07:36:14.968Z,54.70
2022-07-27T07:37:14.743Z,53.70
2022-07-27T07:38:13.746Z,53.80
2022-07-27T07:39:13.184Z,54.10
2022-07-27T07:40:41.594Z,54.20
2022-07-27T07:41:13.191Z,54.00
2022-07-27T07:42:13.164Z,53.50
2022-07-27T07:43:13.123Z,53.90
2022-07-27T07:44:13.455Z,53.60
2022-07-27T07:45:13.458Z,54.20
2022-07-27T07:46:13.986Z,54.20
2022-07-27T07:47:13.275Z,54.80
2022-07-27T07:48:13.365Z,54.00
2022-07-27T07:49:14.094Z,54.50
2022-07-27T07:50:13.560Z,54.30
2022-07-27T07:51:14.279Z,54.70
2022-07-27T07:52:13.340Z,54.00
2022-07-27T07:53:14.326Z,54.30
2022-07-27T07:54:13.388Z,53.40
2022-07-27T07:55:13.412Z,52.20
2022-07-27T07:56:19.015Z,52.70
2022-07-27T07:57:12.944Z,53.50
2022-07-27T07:58:13.336Z,55.40
2022-07-27T07:59:13.786Z,55.70
2022-07-27T08:00:13.809Z,55.40
2022-07-27T08:01:13.742Z,54.30
2022-07-27T08:02:13.891Z,54.10
2022-07-27T08:03:13.089Z,52.70
2022-07-27T08:04:13.826Z,52.50
2022-07-27T08:05:14.063Z,51.70
2022-07-27T08:06:12.883Z,51.90
2022-07-27T08:07:13.982Z,52.40
2022-07-27T08:08:13.092Z,51.60
2022-07-27T08:09:13.676Z,50.70
2022-07-27T08:10:13.972Z,50.40
2022-07-27T08:11:12.854Z,50.50
2022-07-27T08:12:13.893Z,51.10
2022-07-27T08:13:18.202Z,51.40
2022-07-27T08:14:13.698Z,52.20
2022-07-27T08:15:13.725Z,52.60
2022-07-27T08:16:13.947Z,53.00
2022-07-27T08:17:13.048Z,52.10
2022-07-27T08:18:12.958Z,50.70
2022-07-27T08:19:13.314Z,50.50
2022-07-27T08:20:13.476Z,50.80
2022-07-27T08:21:13.487Z,49.90
2022-07-27T08:22:13.524Z,50.30
2022-07-27T08:23:13.517Z,50.50
2022-07-27T08:24:13.361Z,50.80
2022-07-27T08:25:14.281Z,50.80
2022-07-27T08:26:14.850Z,51.20
2022-07-27T08:27:13.854Z,50.70
2022-07-27T08:28:14.078Z,50.80
2022-07-27T08:29:13.739Z,51.50
2022-07-27T08:30:13.539Z,50.10
2022-07-27T08:31:15.217Z,50.50
2022-07-27T08:32:13.004Z,49.70
2022-07-27T08:33:13.243Z,49.40
2022-07-27T08:34:13.149Z,48.50
2022-07-27T08:35:13.203Z,48.50
2022-07-27T08:36:13.168Z,49.50
2022-07-27T08:37:15.585Z,47.00
2022-07-27T08:38:14.023Z,46.80
2022-07-27T08:39:36.526Z,47.50
2022-07-27T08:40:39.704Z,48.70
2022-07-27T08:41:13.910Z,47.90
2022-07-27T08:42:14.142Z,46.80
2022-07-27T08:43:13.323Z,45.80
2022-07-27T08:44:13.358Z,45.00
2022-07-27T08:45:16.048Z,45.40
2022-07-27T08:46:13.252Z,46.20
2022-07-27T08:47:13.390Z,48.00
2022-07-27T08:48:13.430Z,48.30
2022-07-27T08:49:14.011Z,48.30
2022-07-27T08:50:13.539Z,48.00
2022-07-27T08:51:13.661Z,48.30
2022-07-27T08:52:13.716Z,48.40
2022-07-27T08:53:13.858Z,47.80
2022-07-27T08:54:13.821Z,47.30
2022-07-27T08:55:14.362Z,47.40
2022-07-27T08:56:13.502Z,47.10
2022-07-27T08:57:13.662Z,47.00
2022-07-27T08:58:13.637Z,46.70
2022-07-27T08:59:14.245Z,46.80
2022-07-27T09:00:13.866Z,47.40
2022-07-27T09:01:14.304Z,47.90
2022-07-27T09:02:13.773Z,47.30
2022-07-27T09:03:18.982Z,46.50
2022-07-27T09:04:13.059Z,47.60
2022-07-27T09:05:13.317Z,46.50
2022-07-27T09:06:13.720Z,46.10
2022-07-27T09:07:13.774Z,46.70
2022-07-27T09:08:13.819Z,45.80
2022-07-27T09:09:14.373Z,46.80
2022-07-27T09:10:18.932Z,45.80
2022-07-27T09:11:13.397Z,46.30
2022-07-27T09:12:13.725Z,45.60
2022-07-27T09:13:14.578Z,45.30
2022-07-27T09:14:13.566Z,46.00
2022-07-27T09:15:13.767Z,44.90
2022-07-27T09:16:20.768Z,45.60
2022-07-27T09:17:47.351Z,45.60
2022-07-27T09:18:13.797Z,45.80
2022-07-27T09:19:14.306Z,45.70
2022-07-27T09:20:17.994Z,46.20
2022-07-27T09:21:13.647Z,45.20
2022-07-27T09:22:13.574Z,43.40
2022-07-27T09:23:13.546Z,43.00
2022-07-27T09:24:29.739Z,42.10
2022-07-27T09:25:13.367Z,43.10
2022-07-27T09:26:29.580Z,43.90
2022-07-27T09:27:12.962Z,43.30
2022-07-27T09:28:13.162Z,44.10
2022-07-27T09:29:13.504Z,44.80
2022-07-27T09:30:12.937Z,45.20
2022-07-27T09:31:13.215Z,44.50
2022-07-27T09:32:13.246Z,44.80
2022-07-27T09:33:13.508Z,42.60
2022-07-27T09:34:13.679Z,43.10
2022-07-27T09:35:13.908Z,43.30
2022-07-27T09:36:13.530Z,43.50
2022-07-27T09:37:13.668Z,42.90
2022-07-27T09:38:13.621Z,42.40
2022-07-27T09:39:14.344Z,41.90
2022-07-27T09:40:13.593Z,42.40
2022-07-27T09:41:13.426Z,42.20
2022-07-27T09:42:38.205Z,42.00
2022-07-27T09:43:41.624Z,42.20
2022-07-27T09:44:31.756Z,43.80
2022-07-27T09:45:13.479Z,43.60
2022-07-27T09:46:13.615Z,43.90
2022-07-27T09:47:13.659Z,43.70
2022-07-27T09:48:14.203Z,43.30
2022-07-27T09:49:13.436Z,42.70
2022-07-27T09:50:13.594Z,42.20
2022-07-27T09:51:55.726Z,39.70
2022-07-27T09:52:13.961Z,37.70
2022-07-27T09:53:41.228Z,36.00
2022-07-27T09:54:14.273Z,37.30
2022-07-27T09:55:14.935Z,37.10
2022-07-27T09:56:12.813Z,38.10
2022-07-27T09:57:14.127Z,39.70
2022-07-27T09:58:15.774Z,42.80
2022-07-27T09:59:13.321Z,43.50
2022-07-27T10:00:13.664Z,43.90
2022-07-27T10:01:14.229Z,43.40
2022-07-27T10:02:13.403Z,42.60
2022-07-27T10:03:13.479Z,41.90
2022-07-27T10:04:13.981Z,43.70
2022-07-27T10:05:13.707Z,44.40
2022-07-27T10:06:13.727Z,45.50
2022-07-27T10:07:14.034Z,46.80
2022-07-27T10:08:13.129Z,46.50
2022-07-27T10:09:13.230Z,46.70
2022-07-27T10:10:15.104Z,47.40
2022-07-27T10:11:13.690Z,47.90
2022-07-27T10:12:14.106Z,46.60
2022-07-27T10:13:15.025Z,46.80
2022-07-27T10:14:13.347Z,47.00
2022-07-27T10:15:13.930Z,46.40
2022-07-27T10:16:13.112Z,45.20
2022-07-27T10:17:14.635Z,44.40
2022-07-27T10:18:13.668Z,44.10
2022-07-27T10:19:13.857Z,43.50
2022-07-27T10:20:12.799Z,43.70
2022-07-27T10:21:14.040Z,43.40
2022-07-27T10:22:13.250Z,44.10
2022-07-27T10:23:18.481Z,44.40
2022-07-27T10:24:14.069Z,44.30
2022-07-27T10:25:13.509Z,44.70
2022-07-27T10:26:13.644Z,43.50
2022-07-27T10:27:13.761Z,43.20
2022-07-27T10:28:13.683Z,41.90
2022-07-27T10:29:13.987Z,42.30
2022-07-27T10:30:13.186Z,42.50
2022-07-27T10:31:13.579Z,42.50
2022-07-27T10:32:13.823Z,42.00
2022-07-27T10:33:15.234Z,41.70
2022-07-27T10:34:13.563Z,42.00
2022-07-27T10:35:14.288Z,41.50
2022-07-27T10:36:16.701Z,41.30
2022-07-27T10:37:13.377Z,40.60
2022-07-27T10:38:13.728Z,40.90
2022-07-27T10:39:14.503Z,41.70
2022-07-27T10:40:13.943Z,41.30
2022-07-27T10:41:13.271Z,41.90
2022-07-27T10:42:13.583Z,40.70
2022-07-27T10:43:13.929Z,41.50
2022-07-27T10:44:13.347Z,41.30
2022-07-27T10:45:13.736Z,39.80
2022-07-27T10:46:21.602Z,36.90
2022-07-27T10:47:14.476Z,35.80
2022-07-27T10:48:13.620Z,36.60
2022-07-27T10:49:13.868Z,36.20
2022-07-27T10:50:12.832Z,36.80
2022-07-27T10:51:13.771Z,36.80
2022-07-27T10:52:13.750Z,37.00
2022-07-27T10:53:15.565Z,37.00
2022-07-27T10:54:14.099Z,37.50
2022-07-27T10:55:14.096Z,37.70
2022-07-27T10:56:13.529Z,37.50
2022-07-27T10:57:13.556Z,38.60
2022-07-27T10:58:13.787Z,37.90
2022-07-27T10:59:13.749Z,37.20
2022-07-27T11:00:19.519Z,37.70
2022-07-27T11:01:14.524Z,38.10
2022-07-27T11:02:14.183Z,35.40
2022-07-27T11:03:13.243Z,35.50
2022-07-27T11:04:13.933Z,36.90
2022-07-27T11:05:58.452Z,37.40
2022-07-27T11:06:31.836Z,38.70
2022-07-27T11:07:24.352Z,40.20
2022-07-27T11:08:36.069Z,40.10
2022-07-27T11:10:13.432Z,41.10
2022-07-27T11:11:13.909Z,41.10
2022-07-27T11:12:12.948Z,40.40
2022-07-27T11:13:13.097Z,41.10
2022-07-27T11:14:13.716Z,41.60
2022-07-27T11:15:12.857Z,41.50
2022-07-27T11:16:23.991Z,40.20
2022-07-27T11:17:52.439Z,39.50
2022-07-27T11:18:15.062Z,39.10
2022-07-27T11:19:14.332Z,39.90
2022-07-27T11:20:14.045Z,40.40
2022-07-27T11:21:13.498Z,40.10
2022-07-27T11:22:28.531Z,39.70
2022-07-27T11:23:50.022Z,38.00
2022-07-27T11:24:13.777Z,37.30
2022-07-27T11:25:13.150Z,36.40
2022-07-27T11:26:14.799Z,34.10
2022-07-27T11:27:16.403Z,33.80
2022-07-27T11:28:13.471Z,31.50
2022-07-27T11:29:13.969Z,31.60
2022-07-27T11:30:13.400Z,34.00
2022-07-27T11:31:17.206Z,34.60
2022-07-27T11:32:13.327Z,34.00
2022-07-27T11:33:14.939Z,32.70
2022-07-27T11:34:15.065Z,34.10
2022-07-27T11:35:19.241Z,34.60
2022-07-27T11:36:13.151Z,35.40
2022-07-27T11:37:15.222Z,35.80
2022-07-27T11:38:13.507Z,36.50
2022-07-27T11:39:14.968Z,36.50
2022-07-27T11:40:53.249Z,36.90
2022-07-27T11:41:29.212Z,37.10
2022-07-27T11:42:18.547Z,35.70
2022-07-27T11:43:13.106Z,34.30
2022-07-27T11:44:14.318Z,33.70
2022-07-27T11:45:13.183Z,33.30
2022-07-27T11:46:13.270Z,32.20
2022-07-27T11:47:13.862Z,32.10
2022-07-27T11:48:14.058Z,32.70
2022-07-27T11:49:13.574Z,33.40
2022-07-27T11:50:13.852Z,33.80
2022-07-27T11:51:14.172Z,35.10
2022-07-27T11:52:13.199Z,35.10
2022-07-27T11:53:13.301Z,35.90
2022-07-27T11:54:13.241Z,36.50
2022-07-27T11:55:13.722Z,36.60
2022-07-27T11:56:15.281Z,37.40
2022-07-27T11:57:18.486Z,37.40
2022-07-27T11:58:13.452Z,37.40
2022-07-27T11:59:14.364Z,38.30
2022-07-27T12:00:15.140Z,38.40
2022-07-27T12:01:13.378Z,38.90
2022-07-27T12:02:13.377Z,38.90
2022-07-27T12:03:13.648Z,39.40
2022-07-27T12:04:14.106Z,39.90
2022-07-27T12:05:15.187Z,40.00
2022-07-27T12:06:13.927Z,40.30
2022-07-27T12:07:15.368Z,39.90
2022-07-27T12:08:14.314Z,39.30
2022-07-27T12:09:13.838Z,40.40
2022-07-27T12:10:13.200Z,40.20
2022-07-27T12:11:13.386Z,40.00
2022-07-27T12:12:13.243Z,39.10
2022-07-27T12:13:13.517Z,37.80
2022-07-27T12:14:13.541Z,38.70
2022-07-27T12:15:43.141Z,38.30
2022-07-27T12:16:16.936Z,38.60
2022-07-27T12:17:13.645Z,37.90
2022-07-27T12:18:13.679Z,37.90
2022-07-27T12:19:15.699Z,36.10
2022-07-27T12:20:13.272Z,35.40
2022-07-27T12:21:14.841Z,32.50
2022-07-27T12:22:13.890Z,33.50
2022-07-27T12:23:13.222Z,32.40
2022-07-27T12:24:13.162Z,30.30
2022-07-27T12:25:16.981Z,28.70
2022-07-27T12:26:13.338Z,29.40
2022-07-27T12:27:13.406Z,29.10
2022-07-27T12:28:15.857Z,28.60
2022-07-27T12:29:15.339Z,27.30
2022-07-27T12:30:15.539Z,27.50
2022-07-27T12:31:16.801Z,29.40
2022-07-27T12:32:15.645Z,28.30
2022-07-27T12:33:15.889Z,28.90
2022-07-27T12:34:15.528Z,30.70
2022-07-27T12:35:13.555Z,31.80
2022-07-27T12:36:13.574Z,33.10
2022-07-27T12:37:14.179Z,35.20
2022-07-27T12:38:13.904Z,36.70
2022-07-27T12:39:14.765Z,37.30
2022-07-27T12:40:14.565Z,38.70
2022-07-27T12:41:13.608Z,38.10
2022-07-27T12:42:14.350Z,37.80
2022-07-27T12:43:13.441Z,38.40
2022-07-27T12:44:13.538Z,38.40
2022-07-27T12:45:18.753Z,37.30
2022-07-27T12:46:15.277Z,34.80
2022-07-27T12:47:13.361Z,34.00
2022-07-27T12:48:17.154Z,34.60
2022-07-27T12:49:13.374Z,35.30
2022-07-27T12:50:13.942Z,35.50
2022-07-27T12:51:14.428Z,34.50
2022-07-27T12:52:16.581Z,36.10
2022-07-27T12:53:15.406Z,34.90